Time;durP1;ratioP1;P1;durP2;ratioP2;P2;SDS_P1;SDS_P2;PMS_P1;PMS_P2;Temp;Humidity;BMP_temperature;BMP_pressure;BME280_temperature;BME280_humidity;BME280_pressure;Samples;Min_cycle;Max_cycle;Signal;HPM_P1;HPM_P2
2022/02/25 00:00:47;;;;;;;18.27;2.17;;;2.60;99.90;;;;;;4944166;28;20501;-87
2022/02/25 00:03:14;;;;;;;17.92;2.30;;;2.60;99.90;;;;;;4923191;28;20401;-88
2022/02/25 00:05:41;;;;;;;18.92;2.40;;;2.60;99.90;;;;;;4946857;28;20049;-86
2022/02/25 00:08:07;;;;;;;15.85;2.38;;;2.60;99.90;;;;;;4966086;28;20093;-88
2022/02/25 00:10:34;;;;;;;17.83;2.53;;;2.70;99.90;;;;;;4947996;28;20494;-89
2022/02/25 00:13:00;;;;;;;15.75;1.88;;;2.70;99.90;;;;;;4948060;28;20043;-87
2022/02/25 00:15:26;;;;;;;18.48;2.30;;;2.80;99.90;;;;;;4944554;28;20282;-88
2022/02/25 00:17:52;;;;;;;19.00;2.35;;;2.80;99.90;;;;;;4949059;28;20146;-88
2022/02/25 00:20:18;;;;;;;14.45;2.45;;;2.90;99.90;;;;;;4952034;28;20051;-88
2022/02/25 00:22:43;;;;;;;20.52;2.63;;;2.90;99.90;;;;;;4931637;28;20035;-88
2022/02/25 00:25:11;;;;;;;13.55;2.10;;;3.00;99.90;;;;;;4921142;28;20036;-89
2022/02/25 00:27:38;;;;;;;11.05;1.83;;;2.90;99.90;;;;;;4930803;28;20321;-87
2022/02/25 00:30:05;;;;;;;10.85;2.20;;;3.00;99.90;;;;;;4931413;28;20241;-88
2022/02/25 00:32:30;;;;;;;16.00;2.20;;;3.00;99.90;;;;;;4935298;28;20402;-88
2022/02/25 00:34:56;;;;;;;19.08;2.10;;;3.00;99.90;;;;;;4913296;28;20113;-88
2022/02/25 00:37:22;;;;;;;14.25;2.70;;;3.00;99.90;;;;;;4913299;28;20071;-88
2022/02/25 00:39:48;;;;;;;14.13;1.67;;;3.10;99.90;;;;;;4930317;29;20035;-89
2022/02/25 00:42:13;;;;;;;14.82;2.90;;;3.10;99.90;;;;;;4931365;28;20039;-89
2022/02/25 00:44:39;;;;;;;16.10;2.20;;;3.10;99.90;;;;;;4930369;28;20039;-89
2022/02/25 00:47:06;;;;;;;15.57;1.75;;;3.10;99.90;;;;;;4911835;28;20082;-88
2022/02/25 00:49:32;;;;;;;11.43;2.45;;;3.10;99.90;;;;;;4949519;28;20406;-88
2022/02/25 00:51:58;;;;;;;13.18;1.92;;;3.20;99.90;;;;;;4948839;28;20126;-89
2022/02/25 00:54:27;;;;;;;18.10;2.30;;;3.20;99.90;;;;;;4928428;28;20133;-89
2022/02/25 00:56:52;;;;;;;19.25;2.70;;;3.30;99.90;;;;;;4931894;28;20045;-89
2022/02/25 00:59:18;;;;;;;11.48;2.03;;;3.30;99.90;;;;;;4923810;28;20506;-91
2022/02/25 01:01:46;;;;;;;14.15;2.20;;;3.40;99.90;;;;;;4938077;28;20043;-88
2022/02/25 01:04:12;;;;;;;20.65;3.28;;;3.40;99.90;;;;;;4931780;28;20047;-87
2022/02/25 01:06:38;;;;;;;10.40;2.00;;;3.50;99.90;;;;;;4916810;29;20083;-86
2022/02/25 01:09:03;;;;;;;13.07;2.50;;;3.50;99.90;;;;;;4930776;28;20039;-87
2022/02/25 01:11:29;;;;;;;19.25;2.83;;;3.50;99.90;;;;;;4932636;28;20070;-88
2022/02/25 01:13:55;;;;;;;13.30;2.28;;;3.50;99.90;;;;;;4935982;28;20054;-88
2022/02/25 01:16:21;;;;;;;11.30;1.65;;;3.60;99.90;;;;;;4914659;28;20050;-89
2022/02/25 01:18:47;;;;;;;15.70;2.28;;;3.60;99.90;;;;;;4931250;28;20121;-89
2022/02/25 01:21:13;;;;;;;10.07;2.28;;;3.60;99.90;;;;;;4928373;29;20122;-90
2022/02/25 01:23:39;;;;;;;12.13;1.63;;;3.70;99.90;;;;;;4916673;28;20225;-88
2022/02/25 01:26:04;;;;;;;14.10;2.15;;;3.70;99.90;;;;;;4932986;28;20159;-90
2022/02/25 01:28:33;;;;;;;18.90;2.38;;;3.70;99.90;;;;;;4914293;28;20047;-89
2022/02/25 01:31:01;;;;;;;11.55;2.08;;;3.80;99.90;;;;;;4935546;28;20038;-92
2022/02/25 01:33:27;;;;;;;12.65;2.13;;;3.80;99.90;;;;;;4934309;28;20057;-87
2022/02/25 01:35:53;;;;;;;10.73;1.88;;;3.80;99.90;;;;;;4931969;28;20097;-89
2022/02/25 01:38:19;;;;;;;10.85;1.60;;;3.80;99.90;;;;;;4924734;28;20038;-90
2022/02/25 01:40:46;;;;;;;12.85;2.42;;;3.80;99.90;;;;;;4951287;28;20050;-91
2022/02/25 01:43:11;;;;;;;9.85;1.75;;;3.90;99.90;;;;;;4928888;28;20050;-89
2022/02/25 01:45:37;;;;;;;19.85;2.13;;;3.90;99.90;;;;;;4934554;28;20055;-90
2022/02/25 01:48:04;;;;;;;14.27;2.25;;;3.90;99.90;;;;;;4924697;28;20038;-89
2022/02/25 01:50:30;;;;;;;8.77;1.70;;;3.90;99.90;;;;;;4935207;28;20046;-90
2022/02/25 01:53:02;;;;;;;19.13;2.30;;;4.00;99.90;;;;;;4948814;28;20397;-90
2022/02/25 01:55:29;;;;;;;16.08;2.40;;;4.00;99.90;;;;;;4951037;28;20054;-90
2022/02/25 01:57:55;;;;;;;17.92;2.05;;;4.00;99.90;;;;;;4937501;28;20042;-90
2022/02/25 02:00:22;;;;;;;12.95;2.38;;;4.10;99.90;;;;;;4952187;28;20113;-91
2022/02/25 02:02:49;;;;;;;15.18;2.38;;;4.10;99.90;;;;;;4935252;28;20042;-91
2022/02/25 02:05:15;;;;;;;14.80;2.08;;;4.00;99.90;;;;;;4935017;28;20074;-93
2022/02/25 02:07:42;;;;;;;16.05;2.70;;;4.10;99.90;;;;;;4934446;28;20045;-89
2022/02/25 02:10:08;;;;;;;13.18;1.90;;;4.10;99.90;;;;;;4943333;28;20035;-90
2022/02/25 02:12:34;;;;;;;13.65;2.63;;;4.10;99.90;;;;;;4933847;28;20045;-90
2022/02/25 02:15:00;;;;;;;19.05;2.22;;;4.10;99.90;;;;;;4934812;28;20074;-91
2022/02/25 02:17:26;;;;;;;11.52;1.88;;;4.10;99.90;;;;;;4956775;28;20042;-89
2022/02/25 02:19:53;;;;;;;17.38;2.17;;;4.10;99.90;;;;;;4937724;28;20053;-91
2022/02/25 02:22:25;;;;;;;25.42;2.75;;;4.10;99.90;;;;;;4936836;28;20461;-89
2022/02/25 02:24:51;;;;;;;16.60;2.10;;;4.10;99.90;;;;;;4942486;28;20457;-88
2022/02/25 02:27:17;;;;;;;14.77;2.40;;;4.10;99.90;;;;;;4931051;28;20036;-89
2022/02/25 02:29:43;;;;;;;11.85;2.45;;;4.10;99.90;;;;;;4948533;28;20097;-89
2022/02/25 02:32:10;;;;;;;11.35;2.10;;;4.00;99.90;;;;;;4935054;28;20039;-91
2022/02/25 02:34:36;;;;;;;16.52;2.05;;;3.90;99.90;;;;;;4929719;28;20071;-89
2022/02/25 02:37:02;;;;;;;14.73;2.25;;;3.90;99.90;;;;;;4942711;28;20046;-89
2022/02/25 02:39:28;;;;;;;17.38;1.95;;;3.80;99.90;;;;;;4950617;28;20039;-91
2022/02/25 02:41:54;;;;;;;20.00;2.50;;;3.80;99.90;;;;;;4935035;28;20462;-90
2022/02/25 02:44:20;;;;;;;17.20;1.83;;;3.70;99.90;;;;;;4924213;28;20046;-90
2022/02/25 02:46:46;;;;;;;17.08;2.60;;;3.70;99.90;;;;;;4933531;28;20530;-89
2022/02/25 02:49:12;;;;;;;17.10;1.95;;;3.70;99.90;;;;;;4922715;29;20050;-89
2022/02/25 02:51:37;;;;;;;13.38;1.85;;;3.70;99.90;;;;;;4915919;28;20039;-87
2022/02/25 02:54:03;;;;;;;12.27;2.15;;;3.60;99.90;;;;;;4930737;28;20046;-89
2022/02/25 02:56:29;;;;;;;9.45;1.65;;;3.50;99.90;;;;;;4915440;28;20043;-88
2022/02/25 02:58:58;;;;;;;14.93;2.40;;;3.30;99.90;;;;;;4965309;28;20039;-88
2022/02/25 03:01:25;;;;;;;14.18;2.22;;;3.20;99.90;;;;;;4928376;28;20105;-88
2022/02/25 03:03:51;;;;;;;13.70;2.70;;;3.10;99.90;;;;;;4950956;28;20050;-87
2022/02/25 03:06:17;;;;;;;12.00;1.95;;;3.00;99.90;;;;;;4936104;28;20034;-88
2022/02/25 03:08:44;;;;;;;8.98;1.85;;;2.90;99.90;;;;;;4945474;28;20062;-88
2022/02/25 03:11:10;;;;;;;16.15;2.40;;;2.80;99.90;;;;;;4951684;28;20051;-88
2022/02/25 03:13:36;;;;;;;13.43;2.13;;;2.80;99.90;;;;;;4950402;28;20127;-88
2022/02/25 03:16:02;;;;;;;10.43;2.40;;;2.70;99.90;;;;;;4932841;28;20082;-88
2022/02/25 03:18:28;;;;;;;9.88;1.80;;;2.60;99.90;;;;;;4933465;28;20129;-88
2022/02/25 03:20:54;;;;;;;13.40;1.85;;;2.60;99.90;;;;;;4935959;28;20050;-88
2022/02/25 03:23:20;;;;;;;10.38;1.90;;;2.50;99.90;;;;;;4948146;28;20624;-89
2022/02/25 03:25:45;;;;;;;13.68;2.13;;;2.40;99.90;;;;;;4934155;28;20070;-87
2022/02/25 03:28:11;;;;;;;14.30;2.15;;;2.40;99.90;;;;;;4946031;28;20121;-87
2022/02/25 03:30:37;;;;;;;14.38;2.28;;;2.40;99.90;;;;;;4937389;28;20125;-87
2022/02/25 03:33:04;;;;;;;13.25;2.20;;;2.40;99.90;;;;;;4943055;28;20042;-88
2022/02/25 03:35:32;;;;;;;11.13;2.47;;;2.30;99.90;;;;;;4934738;28;20039;-86
2022/02/25 03:37:58;;;;;;;14.80;2.22;;;2.30;99.90;;;;;;4944708;28;20062;-89
2022/02/25 03:40:24;;;;;;;8.95;1.63;;;2.30;99.90;;;;;;4946258;28;20045;-88
2022/02/25 03:42:50;;;;;;;15.63;2.55;;;2.30;99.90;;;;;;4932688;28;20480;-88
2022/02/25 03:45:15;;;;;;;10.93;1.73;;;2.20;99.90;;;;;;4932582;28;20038;-87
2022/02/25 03:47:43;;;;;;;13.30;2.13;;;2.20;99.90;;;;;;4952287;28;20039;-86
2022/02/25 03:50:10;;;;;;;14.55;2.08;;;2.20;99.90;;;;;;4949291;28;20034;-87
2022/02/25 03:52:35;;;;;;;14.07;2.20;;;2.20;99.90;;;;;;4929376;28;20043;-88
2022/02/25 03:55:02;;;;;;;13.63;2.28;;;2.20;99.90;;;;;;4931815;28;20043;-88
2022/02/25 03:57:28;;;;;;;11.20;2.30;;;2.10;99.90;;;;;;4943631;28;20079;-88
2022/02/25 03:59:53;;;;;;;11.00;1.90;;;2.10;99.90;;;;;;4935181;28;20549;-86
2022/02/25 04:02:20;;;;;;;15.32;2.30;;;2.10;99.90;;;;;;4931901;28;20046;-87
2022/02/25 04:04:45;;;;;;;16.52;2.03;;;2.10;99.90;;;;;;4935615;28;20047;-87
2022/02/25 04:07:11;;;;;;;12.93;2.42;;;2.10;99.90;;;;;;4949633;28;20043;-88
2022/02/25 04:09:37;;;;;;;16.88;2.08;;;2.10;99.90;;;;;;4950777;28;20375;-87
2022/02/25 04:12:03;;;;;;;13.15;2.05;;;2.10;99.90;;;;;;4948283;28;20027;-88
2022/02/25 04:14:29;;;;;;;13.38;2.05;;;2.10;99.90;;;;;;4946611;28;20061;-87
2022/02/25 04:16:54;;;;;;;18.75;2.53;;;2.10;99.90;;;;;;4929457;28;20106;-87
2022/02/25 04:19:20;;;;;;;14.05;2.53;;;2.10;99.90;;;;;;4917800;28;20464;-87
2022/02/25 04:21:47;;;;;;;14.85;1.98;;;2.10;99.90;;;;;;4933189;28;20440;-86
2022/02/25 04:24:13;;;;;;;15.40;2.53;;;2.10;99.90;;;;;;4951227;28;20450;-88
2022/02/25 04:26:39;;;;;;;10.55;1.58;;;2.10;99.90;;;;;;4947681;28;20050;-88
2022/02/25 04:29:05;;;;;;;15.80;2.28;;;2.00;99.90;;;;;;4927425;28;20039;-87
2022/02/25 04:31:31;;;;;;;19.15;2.00;;;2.10;99.90;;;;;;4931068;28;20046;-87
2022/02/25 04:33:57;;;;;;;22.23;2.42;;;2.00;99.90;;;;;;4948071;28;20038;-87
2022/02/25 04:36:23;;;;;;;14.50;2.38;;;2.00;99.90;;;;;;4944465;28;20093;-86
2022/02/25 04:38:52;;;;;;;15.73;2.42;;;2.00;99.90;;;;;;4949225;28;20525;-87
2022/02/25 04:41:18;;;;;;;19.13;2.38;;;2.00;99.90;;;;;;4947342;28;20111;-88
2022/02/25 04:43:45;;;;;;;14.43;2.08;;;2.00;99.90;;;;;;4952403;28;20043;-88
2022/02/25 04:46:24;;;;;;;21.30;2.28;;;2.00;99.90;;;;;;4948072;28;20075;-86
2022/02/25 04:48:49;;;;;;;13.77;2.65;;;2.00;99.90;;;;;;4943995;28;20053;-87
2022/02/25 04:51:16;;;;;;;25.45;2.33;;;2.00;99.90;;;;;;4933915;28;20039;-88
2022/02/25 04:53:43;;;;;;;20.50;2.60;;;2.00;99.90;;;;;;4947605;28;20136;-87
2022/02/25 04:56:09;;;;;;;15.45;2.50;;;2.10;99.90;;;;;;4936629;28;20125;-88
2022/02/25 04:58:35;;;;;;;22.70;2.38;;;2.00;99.90;;;;;;4931741;28;20047;-88
2022/02/25 05:01:03;;;;;;;13.00;3.20;;;2.00;99.90;;;;;;4946835;28;20398;-88
2022/02/25 05:03:28;;;;;;;16.33;2.40;;;2.00;99.90;;;;;;4936228;28;20438;-87
2022/02/25 05:05:54;;;;;;;27.98;2.83;;;2.00;99.90;;;;;;4919595;28;20039;-87
2022/02/25 05:08:20;;;;;;;17.35;2.28;;;2.10;99.90;;;;;;4961227;28;20393;-88
2022/02/25 05:10:46;;;;;;;22.05;2.75;;;2.10;99.90;;;;;;4948986;28;20380;-88
2022/02/25 05:13:12;;;;;;;17.13;2.10;;;2.10;99.90;;;;;;4963203;28;20042;-87
2022/02/25 05:21:06;;;;;;;19.00;3.17;;;2.30;99.90;;;;;;4946931;28;20573;-87
2022/02/25 05:23:32;;;;;;;19.52;2.97;;;2.30;99.90;;;;;;4925566;28;20054;-87
2022/02/25 05:25:58;;;;;;;19.92;2.42;;;2.30;99.90;;;;;;4930804;28;20039;-87
2022/02/25 05:28:24;;;;;;;25.35;3.35;;;2.30;99.90;;;;;;4931971;28;20410;-87
2022/02/25 05:30:50;;;;;;;13.57;2.00;;;2.30;99.90;;;;;;4930879;28;20071;-88
2022/02/25 05:33:15;;;;;;;20.75;2.88;;;2.30;99.90;;;;;;4916756;29;20039;-87
2022/02/25 05:35:42;;;;;;;24.38;3.30;;;2.30;99.90;;;;;;4934706;28;20038;-88
2022/02/25 05:38:07;;;;;;;14.40;2.22;;;2.40;99.90;;;;;;4927076;28;20035;-87
2022/02/25 05:40:34;;;;;;;25.27;2.58;;;2.30;99.90;;;;;;4928152;28;20521;-87
2022/02/25 05:43:00;;;;;;;19.48;2.35;;;2.30;99.90;;;;;;4945575;28;20505;-87
2022/02/25 05:45:26;;;;;;;19.10;2.92;;;2.30;99.90;;;;;;4929763;28;20051;-87
2022/02/25 05:47:52;;;;;;;16.45;2.83;;;2.30;99.90;;;;;;4944916;28;20046;-86
2022/02/25 05:50:19;;;;;;;16.52;2.67;;;2.40;99.90;;;;;;4932172;28;20057;-86
2022/02/25 05:52:46;;;;;;;17.42;2.03;;;2.40;99.90;;;;;;4926089;28;20035;-86
2022/02/25 05:55:12;;;;;;;24.75;2.83;;;2.40;99.90;;;;;;4930000;28;20051;-87
2022/02/25 05:57:38;;;;;;;21.02;2.47;;;2.40;99.90;;;;;;4946655;28;20417;-87
2022/02/25 06:00:06;;;;;;;22.50;2.53;;;2.50;99.90;;;;;;4915025;28;20672;-87
2022/02/25 06:02:33;;;;;;;13.25;2.25;;;2.50;99.90;;;;;;4930387;28;20077;-87
2022/02/25 06:04:59;;;;;;;18.40;1.92;;;2.50;99.90;;;;;;4929891;28;20047;-87
2022/02/25 06:07:25;;;;;;;22.00;2.78;;;2.50;99.90;;;;;;4940969;28;20053;-86
2022/02/25 06:09:51;;;;;;;15.38;2.28;;;2.50;99.90;;;;;;4946564;28;20039;-88
2022/02/25 06:12:17;;;;;;;19.25;2.22;;;2.60;99.90;;;;;;4924225;28;20038;-86
2022/02/25 06:14:43;;;;;;;20.83;3.13;;;2.60;99.90;;;;;;4926358;28;20494;-86
2022/02/25 06:17:09;;;;;;;17.75;2.60;;;2.60;99.90;;;;;;4921799;28;20038;-86
2022/02/25 06:19:35;;;;;;;17.98;2.47;;;2.60;99.90;;;;;;4928381;28;20077;-87
2022/02/25 06:22:01;;;;;;;20.52;2.80;;;2.70;99.90;;;;;;4929492;28;20426;-87
2022/02/25 06:24:27;;;;;;;15.05;2.53;;;2.70;99.90;;;;;;4933071;28;20078;-87
2022/02/25 06:26:53;;;;;;;14.90;2.90;;;2.80;99.90;;;;;;4949702;28;20086;-88
2022/02/25 06:29:19;;;;;;;21.05;4.65;;;2.80;99.90;;;;;;4925335;28;20070;-88
2022/02/25 06:31:45;;;;;;;15.68;2.95;;;2.90;99.90;;;;;;4936919;28;20035;-89
2022/02/25 06:34:11;;;;;;;22.25;2.83;;;2.90;99.90;;;;;;4928587;28;20046;-87
2022/02/25 06:36:38;;;;;;;23.52;2.92;;;2.90;99.90;;;;;;4931572;28;20107;-86
2022/02/25 06:39:04;;;;;;;20.77;2.55;;;2.90;99.90;;;;;;4937172;28;20094;-87
2022/02/25 06:41:30;;;;;;;28.20;3.00;;;2.80;99.90;;;;;;4928819;28;20348;-87
2022/02/25 06:43:56;;;;;;;25.20;3.08;;;2.80;99.90;;;;;;4912193;28;20064;-89
2022/02/25 06:46:23;;;;;;;19.80;3.47;;;2.80;99.90;;;;;;4923608;28;20517;-87
2022/02/25 06:48:50;;;;;;;15.80;3.38;;;2.80;99.90;;;;;;4941081;28;20042;-86
2022/02/25 06:51:16;;;;;;;18.25;3.30;;;2.80;99.90;;;;;;4930824;28;20034;-87
2022/02/25 06:53:42;;;;;;;13.73;2.80;;;2.80;99.90;;;;;;4917294;28;20043;-87
2022/02/25 06:56:07;;;;;;;19.08;3.15;;;2.80;99.90;;;;;;4926575;28;20129;-89
2022/02/25 06:58:37;;;;;;;24.67;3.95;;;2.70;99.90;;;;;;4923645;28;20512;-88
2022/02/25 07:01:04;;;;;;;15.75;2.40;;;2.80;99.90;;;;;;4945083;28;20046;-87
2022/02/25 07:03:30;;;;;;;24.20;3.85;;;2.80;99.90;;;;;;4930348;28;20486;-89
2022/02/25 07:05:56;;;;;;;13.80;3.28;;;2.80;99.90;;;;;;4935783;28;20049;-90
2022/02/25 07:08:22;;;;;;;23.30;3.67;;;2.80;99.90;;;;;;4930666;28;20043;-87
2022/02/25 07:10:48;;;;;;;17.55;3.92;;;2.80;99.90;;;;;;4925812;28;20035;-87
2022/02/25 07:13:14;;;;;;;26.52;4.35;;;2.90;99.90;;;;;;4915047;28;20031;-88
2022/02/25 07:15:41;;;;;;;25.98;3.70;;;2.90;99.90;;;;;;4940949;28;20447;-91
2022/02/25 07:18:08;;;;;;;27.35;4.28;;;2.90;99.90;;;;;;4923813;28;20162;-87
2022/02/25 07:20:35;;;;;;;23.92;3.65;;;2.90;99.90;;;;;;4923813;28;20399;-88
2022/02/25 07:23:01;;;;;;;21.15;3.67;;;3.00;99.90;;;;;;4940216;28;20047;-88
2022/02/25 07:25:28;;;;;;;26.23;4.47;;;3.00;99.90;;;;;;4926254;28;20039;-89
2022/02/25 07:27:53;;;;;;;31.50;4.85;;;3.00;99.90;;;;;;4942732;28;20107;-87
2022/02/25 07:30:20;;;;;;;28.10;4.13;;;3.00;99.90;;;;;;4931988;28;20042;-88
2022/02/25 07:32:46;;;;;;;25.70;4.40;;;3.10;99.90;;;;;;4930157;28;20255;-87
2022/02/25 07:35:12;;;;;;;37.25;4.28;;;3.10;99.90;;;;;;4930789;28;20046;-88
2022/02/25 07:37:39;;;;;;;24.90;3.15;;;3.10;99.90;;;;;;4927257;28;20050;-87
2022/02/25 07:40:07;;;;;;;30.35;3.42;;;3.10;99.90;;;;;;4926219;28;20454;-86
2022/02/25 07:42:34;;;;;;;35.35;3.95;;;3.10;99.90;;;;;;4946465;28;20054;-86
2022/02/25 07:45:00;;;;;;;26.88;3.60;;;3.20;99.90;;;;;;4942383;28;20031;-87
2022/02/25 07:47:26;;;;;;;20.08;3.38;;;3.20;99.90;;;;;;4935000;28;20047;-89
2022/02/25 07:49:53;;;;;;;35.60;4.13;;;3.20;99.90;;;;;;4944444;28;20058;-88
2022/02/25 07:52:20;;;;;;;21.67;3.47;;;3.30;99.90;;;;;;4932898;28;20031;-87
2022/02/25 07:54:46;;;;;;;27.65;3.50;;;3.30;99.90;;;;;;4941568;28;20082;-88
2022/02/25 07:57:14;;;;;;;22.98;4.20;;;3.40;99.90;;;;;;4947506;28;20043;-88
2022/02/25 07:59:40;;;;;;;34.72;4.03;;;3.60;99.90;;;;;;4948156;28;20038;-87
2022/02/25 08:02:06;;;;;;;26.52;4.80;;;3.70;99.90;;;;;;4929194;28;20043;-86
2022/02/25 08:04:32;;;;;;;23.35;3.67;;;3.70;99.90;;;;;;4947366;28;20043;-87
2022/02/25 08:06:59;;;;;;;36.70;4.32;;;3.70;99.90;;;;;;4934751;28;20569;-89
2022/02/25 08:09:24;;;;;;;26.30;4.15;;;3.70;99.90;;;;;;4943876;28;20059;-88
2022/02/25 08:11:50;;;;;;;30.67;4.30;;;3.80;99.90;;;;;;4945319;28;20589;-87
2022/02/25 08:14:16;;;;;;;27.55;5.05;;;3.90;99.90;;;;;;4919668;28;20047;-89
2022/02/25 08:16:42;;;;;;;32.95;4.07;;;4.00;99.90;;;;;;4934919;28;20562;-88
2022/02/25 08:19:09;;;;;;;23.88;3.65;;;4.10;99.90;;;;;;4934088;28;20145;-88
2022/02/25 08:21:35;;;;;;;21.08;3.13;;;4.20;99.90;;;;;;4933039;28;20047;-90
2022/02/25 08:24:01;;;;;;;17.52;2.50;;;4.20;99.90;;;;;;4919337;28;20125;-89
2022/02/25 08:26:27;;;;;;;30.25;3.10;;;4.20;99.90;;;;;;4946809;28;20042;-89
2022/02/25 08:28:55;;;;;;;16.33;2.55;;;4.20;99.90;;;;;;4948747;28;20078;-89
2022/02/25 08:31:24;;;;;;;23.52;3.20;;;4.20;99.90;;;;;;4954598;28;20043;-88
2022/02/25 08:33:53;;;;;;;25.88;3.75;;;4.20;99.90;;;;;;4935452;28;20046;-89
2022/02/25 08:36:19;;;;;;;31.15;4.38;;;4.30;99.90;;;;;;4924493;28;20093;-86
2022/02/25 08:38:45;;;;;;;28.15;3.80;;;4.40;99.90;;;;;;4946907;28;20452;-88
2022/02/25 08:41:12;;;;;;;32.55;4.47;;;4.60;99.90;;;;;;4949675;28;20038;-89
2022/02/25 08:43:37;;;;;;;23.48;3.65;;;4.70;99.90;;;;;;4931003;28;20331;-88
2022/02/25 08:46:03;;;;;;;27.58;4.50;;;4.90;99.90;;;;;;4915016;28;20031;-87
2022/02/25 08:48:29;;;;;;;25.05;3.70;;;5.00;99.90;;;;;;4942932;28;20130;-86
2022/02/25 08:50:55;;;;;;;26.05;3.90;;;5.10;99.90;;;;;;4936209;28;20496;-87
2022/02/25 08:53:21;;;;;;;25.63;3.30;;;5.20;99.90;;;;;;4929546;28;20031;-90
2022/02/25 08:55:47;;;;;;;27.65;3.95;;;5.40;99.90;;;;;;4921154;28;20542;-89
2022/02/25 08:58:13;;;;;;;21.52;2.90;;;5.50;99.90;;;;;;4946612;28;20475;-91
2022/02/25 09:00:39;;;;;;;16.70;2.10;;;5.60;99.90;;;;;;4933588;28;20046;-91
2022/02/25 09:03:04;;;;;;;13.57;2.72;;;5.80;99.90;;;;;;4934641;28;20039;-89
2022/02/25 09:05:30;;;;;;;17.50;2.50;;;6.00;99.90;;;;;;4923543;28;20043;-89
2022/02/25 09:07:56;;;;;;;13.30;3.35;;;6.10;99.90;;;;;;4948608;28;20039;-90
2022/02/25 09:10:24;;;;;;;23.58;3.25;;;6.20;99.90;;;;;;4915613;28;20042;-90
2022/02/25 09:12:50;;;;;;;15.75;2.63;;;6.30;99.90;;;;;;4947464;28;20401;-87
2022/02/25 09:15:22;;;;;;;21.50;2.78;;;6.30;99.90;;;;;;4945914;28;20047;-89
2022/02/25 09:17:51;;;;;;;21.13;2.75;;;6.30;99.90;;;;;;4941606;28;20101;-86
2022/02/25 09:20:18;;;;;;;25.38;3.90;;;6.20;99.90;;;;;;4932874;28;20122;-88
2022/02/25 09:22:44;;;;;;;21.33;3.28;;;6.20;99.90;;;;;;4946740;28;20094;-88
2022/02/25 09:25:09;;;;;;;18.75;2.83;;;6.20;99.90;;;;;;4917623;28;20081;-88
2022/02/25 09:27:35;;;;;;;15.10;3.00;;;6.20;99.90;;;;;;4936095;28;20043;-87
2022/02/25 09:30:02;;;;;;;21.10;3.08;;;6.20;99.90;;;;;;4932671;28;20034;-89
2022/02/25 09:32:28;;;;;;;24.02;3.28;;;6.20;99.90;;;;;;4933227;28;20514;-88
2022/02/25 09:34:54;;;;;;;28.17;4.07;;;6.30;99.90;;;;;;4946215;28;20035;-90
2022/02/25 09:37:20;;;;;;;22.75;3.25;;;6.30;99.90;;;;;;4949687;28;20053;-89
2022/02/25 09:39:46;;;;;;;23.67;3.35;;;6.40;99.90;;;;;;4936619;23;20468;-88
2022/02/25 09:42:12;;;;;;;26.58;3.80;;;6.40;99.90;;;;;;4910986;29;20039;-87
2022/02/25 09:44:37;;;;;;;28.80;4.38;;;6.40;99.90;;;;;;4901462;29;20434;-87
2022/02/25 09:47:03;;;;;;;26.20;3.03;;;6.50;99.90;;;;;;4929318;28;20171;-89
2022/02/25 09:49:29;;;;;;;20.13;2.78;;;6.60;99.90;;;;;;4926548;28;20102;-87
2022/02/25 09:51:56;;;;;;;19.65;3.80;;;6.60;99.90;;;;;;4912217;28;20043;-87
2022/02/25 09:54:22;;;;;;;21.38;3.13;;;6.70;99.90;;;;;;4912384;29;20100;-88
2022/02/25 09:56:49;;;;;;;19.58;2.95;;;6.70;99.90;;;;;;4894780;29;20045;-89
2022/02/25 09:59:16;;;;;;;19.70;3.15;;;6.80;99.90;;;;;;4926953;28;20079;-88
2022/02/25 10:01:43;;;;;;;25.48;3.45;;;6.80;99.90;;;;;;4908181;29;20386;-86
2022/02/25 10:04:12;;;;;;;22.83;3.13;;;6.90;99.90;;;;;;4923275;28;20201;-89
2022/02/25 10:06:38;;;;;;;21.65;3.08;;;;;;;;;;4924490;28;20051;-88
2022/02/25 10:09:34;;;;;;;24.33;3.08;;;7.00;99.90;;;;;;4942221;28;20075;-89
2022/02/25 10:12:12;;;;;;;18.55;2.33;;;;;;;;;;4939697;28;20058;-88
2022/02/25 10:14:41;;;;;;;15.23;2.38;;;;;;;;;;4943553;28;20097;-88
2022/02/25 10:17:09;;;;;;;24.67;3.72;;;;;;;;;;4930985;29;20066;-87
2022/02/25 10:19:35;;;;;;;24.33;4.45;;;;;;;;;;4933910;28;20047;-90
2022/02/25 10:22:14;;;;;;;24.25;4.72;;;;;;;;;;4942920;28;20039;-87
2022/02/25 10:24:57;;;;;;;19.83;3.63;;;7.10;99.90;;;;;;4938790;28;20031;-89
2022/02/25 10:27:41;;;;;;;25.58;3.33;;;6.30;99.90;;;;;;4942978;28;20039;-87
2022/02/25 10:30:10;;;;;;;19.75;2.90;;;;;;;;;;4928244;29;20074;-87
2022/02/25 10:32:41;;;;;;;25.00;3.35;;;6.20;99.90;;;;;;4926397;28;20047;-86
2022/02/25 10:35:34;;;;;;;23.67;3.40;;;6.30;99.90;;;;;;4927130;29;20071;-87
2022/02/25 10:38:03;;;;;;;;;;;6.40;99.90;;;;;;4938749;28;20043;-86
2022/02/25 10:40:41;;;;;;;35.47;5.20;;;6.40;99.90;;;;;;4943498;28;19965;-89
2022/02/25 10:43:17;;;;;;;32.67;3.72;;;6.50;99.90;;;;;;4934908;29;20737;-90
2022/02/25 10:45:45;;;;;;;24.83;3.38;;;;;;;;;;4946217;28;21107;-89
2022/02/25 10:48:12;;;;;;;25.02;3.50;;;;;;;;;;4939241;28;20079;-90
2022/02/25 10:51:02;;;;;;;22.70;2.85;;;;;;;;;;4930677;28;20150;-87
2022/02/25 10:53:30;;;;;;;27.17;3.53;;;;;;;;;;4917114;28;20066;-89
2022/02/25 10:56:07;;;;;;;26.50;4.13;;;;;;;;;;4935974;28;20043;-87
2022/02/25 10:58:52;;;;;;;22.38;3.33;;;;;;;;;;4928599;29;20051;-87
2022/02/25 11:01:22;;;;;;;21.77;3.50;;;;;;;;;;4924215;29;20102;-88
2022/02/25 11:04:02;;;;;;;31.77;4.07;;;;;;;;;;4945225;28;20055;-88
2022/02/25 11:06:30;;;;;;;22.45;2.90;;;;;;;;;;4942402;28;20601;-89
2022/02/25 11:08:57;;;;;;;16.95;2.28;;;;;;;;;;4944531;28;20042;-90
2022/02/25 11:11:24;;;;;;;17.10;2.47;;;;;;;;;;4940356;28;20122;-90
2022/02/25 11:13:50;;;;;;;18.13;2.80;;;;;;;;;;4942674;28;20046;-90
2022/02/25 11:16:20;;;;;;;18.52;3.45;;;;;;;;;;4940355;28;20039;-90
2022/02/25 11:18:48;;;;;;;21.00;2.90;;;6.70;99.90;;;;;;4932211;29;20039;-89
2022/02/25 11:21:15;;;;;;;19.00;2.30;;;6.80;99.90;;;;;;4943604;28;20102;-89
2022/02/25 11:23:43;;;;;;;10.05;1.23;;;6.50;99.90;;;;;;4912822;28;20050;-88
2022/02/25 11:26:13;;;;;;;5.35;0.90;;;6.20;99.90;;;;;;4927112;28;20071;-88
2022/02/25 11:28:41;;;;;;;9.98;0.98;;;6.00;99.90;;;;;;4932389;28;20142;-87
2022/02/25 11:31:26;;;;;;;5.60;1.13;;;5.70;99.90;;;;;;4927787;28;20035;-88
2022/02/25 11:33:54;;;;;;;5.95;1.00;;;5.50;99.90;;;;;;4940103;28;20046;-87
2022/02/25 11:36:39;;;;;;;15.13;1.50;;;5.30;99.90;;;;;;4933726;29;20035;-88
2022/02/25 11:39:25;;;;;;;8.75;1.48;;;5.20;99.90;;;;;;4931431;28;20049;-87
2022/02/25 11:42:02;;;;;;;7.68;0.90;;;5.10;99.90;;;;;;4931556;29;20339;-86
2022/02/25 11:44:31;;;;;;;9.20;1.17;;;5.20;99.90;;;;;;4934217;28;20039;-87
2022/02/25 11:46:58;;;;;;;12.07;1.02;;;5.40;99.90;;;;;;4927480;28;20042;-88
2022/02/25 11:49:26;;;;;;;8.43;1.35;;;5.60;99.90;;;;;;4931950;28;22258;-86
2022/02/25 11:51:52;;;;;;;8.40;1.20;;;5.70;99.90;;;;;;4924032;28;20426;-87
2022/02/25 11:54:17;;;;;;;10.30;1.58;;;6.00;99.90;;;;;;4932047;29;20035;-94
2022/02/25 11:56:43;;;;;;;10.38;1.20;;;6.30;99.90;;;;;;4946793;28;20113;-86
2022/02/25 11:59:09;;;;;;;11.95;1.67;;;6.40;99.90;;;;;;4943779;28;20118;-88
2022/02/25 12:01:55;;;;;;;18.63;2.22;;;6.60;99.90;;;;;;4931817;28;20134;-86
2022/02/25 12:04:29;;;;;;;13.38;2.45;;;6.80;99.90;;;;;;4929740;28;20290;-88
2022/02/25 12:07:06;;;;;;;10.23;1.90;;;6.90;99.90;;;;;;4941542;28;20533;-86
2022/02/25 12:09:52;;;;;;;9.50;1.58;;;7.00;99.90;;;;;;4943470;28;20250;-89
2022/02/25 12:12:24;;;;;;;12.00;1.60;;;7.10;99.90;;;;;;4926944;29;20498;-87
2022/02/25 12:15:04;;;;;;;13.07;1.75;;;7.20;99.90;;;;;;4938118;28;20058;-88
2022/02/25 12:17:45;;;;;;;9.70;1.50;;;7.30;99.90;;;;;;4945290;28;20494;-88
2022/02/25 12:20:24;;;;;;;11.70;1.48;;;;;;;;;;4944309;28;20047;-88
2022/02/25 12:22:53;;;;;;;14.20;1.95;;;;;;;;;;4925810;28;20043;-87
2022/02/25 12:25:38;;;;;;;11.80;1.40;;;;;;;;;;4932884;29;20035;-86
2022/02/25 12:28:23;;;;;;;19.40;2.17;;;;;;;;;;4927766;29;20051;-87
2022/02/25 12:31:04;;;;;;;20.05;2.30;;;;;;;;;;4942586;28;20187;-87
2022/02/25 12:33:34;;;;;;;16.85;1.83;;;;;;;;;;4942824;28;20039;-87
2022/02/25 12:36:04;;;;;;;15.65;1.80;;;;;;;;;;4930228;29;20046;-85
2022/02/25 12:38:31;;;;;;;14.82;2.55;;;;;;;;;;4945713;28;20114;-87
2022/02/25 12:41:15;;;;;;;16.30;2.33;;;;;;;;;;4929909;28;20039;-87
2022/02/25 12:43:48;;;;;;;9.63;2.13;;;;;;;;;;4928011;28;20049;-83
2022/02/25 12:46:15;;;;;;;14.32;1.70;;;;;;;;;;4944954;28;20418;-85
2022/02/25 12:48:41;;;;;;;14.10;2.70;;;;;;;;;;4944402;28;20402;-86
2022/02/25 12:51:08;;;;;;;12.60;1.63;;;;;;;;;;4945316;28;20055;-88
2022/02/25 12:53:53;;;;;;;15.68;2.20;;;;;;;;;;4946959;28;20303;-86
2022/02/25 12:56:38;;;;;;;10.43;1.73;;;;;;;;;;4930245;28;20479;-85
2022/02/25 12:59:05;;;;;;;15.88;2.53;;;;;;;;;;4947002;28;20157;-87
2022/02/25 13:01:32;;;;;;;18.52;2.05;;;;;;;;;;4948517;28;20043;-88
2022/02/25 13:04:06;;;;;;;14.30;2.10;;;;;;;;;;4947427;28;20430;-88
2022/02/25 13:06:37;;;;;;;14.73;1.73;;;7.50;99.90;;;;;;4946743;28;20102;-87